^^
Station Historical Data
Daily Summary for June 11, 2017 Units:  English    Metric   Both
« Previous Day
Next Day »
Daily Weekly Monthly Yearly Custom
  High: Low: Average:
Temperature: 91.6 °F 68.3 °F 81 °F
Dew Point: 66.0 °F 59.2 °F 62.8 °F
Humidity: 79% 39% 55%
Wind Speed: 7.0mph 0.0mph 2.1mph
Wind Gust: 16.0mph - -
Wind- - SW
Pressure: 30.08 in 29.97 in -
Precipitation: 0.00 in    
Historical Graphs
 
 
Tabular Data for June 11, 2017
Time Temperature Dew Point Pressure Wind Wind Speed Wind Gust Humidity Rainfall Rate (Hourly) Conditions
00:00 75.6 °F 59.8 °F 30.02 in SSW 3.0 mph 8.0 mph 58% 0.00 in CLR
00:15 75.8 °F 59.5 °F 30.02 in South 1.0 mph 8.0 mph 57% 0.00 in FEW
00:30 76.0 °F 59.2 °F 30.02 in South 5.0 mph 12.0 mph 56% 0.00 in FEW
00:45 75.8 °F 59.5 °F 30.02 in SSW 1.0 mph 10.0 mph 57% 0.00 in FEW
01:00 75.3 °F 59.5 °F 30.03 in SSW 2.0 mph 7.0 mph 58% 0.00 in FEW
01:15 75.0 °F 59.2 °F 30.03 in SW 3.0 mph 8.0 mph 58% 0.00 in CLR
01:30 74.7 °F 59.4 °F 30.03 in SSW 3.0 mph 8.0 mph 59% 0.00 in CLR
01:45 74.5 °F 59.7 °F 30.03 in SSW 3.0 mph 10.0 mph 60% 0.00 in CLR
02:00 74.1 °F 59.8 °F 30.03 in SSW 3.0 mph 7.0 mph 61% 0.00 in CLR
02:15 73.6 °F 59.8 °F 30.03 in SSW 2.0 mph 7.0 mph 62% 0.00 in CLR
02:30 73.0 °F 59.7 °F 30.03 in SSW 1.0 mph 5.0 mph 63% 0.00 in CLR
02:45 72.6 °F 59.7 °F 30.03 in Calm   5.0 mph 64% 0.00 in CLR
03:00 72.3 °F 59.8 °F 30.03 in SSW 2.0 mph 6.0 mph 65% 0.00 in CLR
03:15 72.1 °F 60.1 °F 30.03 in SSW 1.0 mph 6.0 mph 66% 0.00 in CLR
03:30 71.8 °F 60.2 °F 30.03 in Calm   5.0 mph 67% 0.00 in CLR
03:45 71.5 °F 60.4 °F 30.03 in Calm   5.0 mph 68% 0.00 in CLR
04:00 71.3 °F 60.6 °F 30.03 in Calm   4.0 mph 69% 0.00 in CLR
04:15 69.9 °F 60.1 °F 30.03 in Calm   1.0 mph 71% 0.00 in CLR
04:30 69.8 °F 60.4 °F 30.04 in Calm   2.0 mph 72% 0.00 in CLR
04:45 69.8 °F 60.7 °F 30.04 in South 1.0 mph 2.0 mph 73% 0.00 in CLR
05:00 69.9 °F 60.5 °F 30.04 in Calm   1.0 mph 72% 0.00 in CLR
05:15 69.6 °F 60.6 °F 30.04 in Calm   1.0 mph 73% 0.00 in CLR
05:30 69.4 °F 60.8 °F 30.05 in Calm   1.0 mph 74% 0.00 in CLR
05:45 69.2 °F 60.9 °F 30.05 in Calm   1.0 mph 75% 0.00 in CLR
06:00 68.7 °F 61.2 °F 30.06 in Calm   1.0 mph 77% 0.00 in CLR
06:15 68.5 °F 61.4 °F 30.06 in Calm   1.0 mph 78% 0.00 in CLR
06:30 68.3 °F 61.5 °F 30.06 in Calm   1.0 mph 79% 0.00 in CLR
06:45 69.4 °F 61.5 °F 30.06 in Calm   3.0 mph 76% 0.00 in CLR
07:00 70.4 °F 61.7 °F 30.06 in Calm   3.0 mph 74% 0.00 in CLR
07:15 71.5 °F 62.0 °F 30.07 in South 1.0 mph 5.0 mph 72% 0.00 in CLR
07:30 72.1 °F 62.2 °F 30.07 in SSW 1.0 mph 5.0 mph 71% 0.00 in CLR
07:45 73.5 °F 62.7 °F 30.08 in WSW 3.0 mph 8.0 mph 69% 0.00 in CLR
08:00 74.9 °F 63.2 °F 30.08 in SSW 1.0 mph 6.0 mph 67% 0.00 in CLR
08:15 75.6 °F 63.5 °F 30.08 in SSW 1.0 mph 7.0 mph 66% 0.00 in CLR
08:30 77.4 °F 63.8 °F 30.08 in SSW 2.0 mph 6.0 mph 63% 0.00 in CLR
08:45 78.0 °F 63.9 °F 30.08 in SSW 3.0 mph 9.0 mph 62% 0.00 in CLR
09:00 78.3 °F 64.6 °F 30.08 in SW 1.0 mph 8.0 mph 63% 0.00 in CLR
09:15 79.2 °F 64.6 °F 30.08 in SSW 3.0 mph 7.0 mph 61% 0.00 in CLR
09:30 79.8 °F 65.2 °F 30.07 in SSW 5.0 mph 7.0 mph 61% 0.00 in CLR
09:45 80.9 °F 65.7 °F 30.07 in SW 1.0 mph 7.0 mph 60% 0.00 in CLR
10:00 81.8 °F 66.0 °F 30.07 in SW 2.0 mph 6.0 mph 59% 0.00 in CLR
10:15 82.8 °F 65.5 °F 30.06 in SW 2.0 mph 8.0 mph 56% 0.00 in CLR
10:30 83.6 °F 65.2 °F 30.06 in SW 1.0 mph 7.0 mph 54% 0.00 in CLR
10:45 84.8 °F 65.8 °F 30.06 in Calm   5.0 mph 53% 0.00 in CLR
11:00 85.6 °F 64.2 °F 30.05 in WNW 2.0 mph 7.0 mph 49% 0.00 in CLR
11:15 86.0 °F 63.4 °F 30.05 in WSW 3.0 mph 7.0 mph 47% 0.00 in CLR
11:30 86.9 °F 63.6 °F 30.05 in SW 2.0 mph 6.0 mph 46% 0.00 in CLR
11:45 87.3 °F 64.0 °F 30.05 in SSW 2.0 mph 7.0 mph 46% 0.00 in CLR
12:00 87.5 °F 64.2 °F 30.05 in WSW 1.0 mph 5.0 mph 46% 0.00 in CLR
12:15 87.5 °F 62.9 °F 30.05 in NW 1.0 mph 6.0 mph 44% 0.00 in CLR
12:30 87.7 °F 63.7 °F 30.05 in WSW 1.0 mph 4.0 mph 45% 0.00 in CLR
12:45 89.5 °F 64.7 °F 30.04 in SSW 2.0 mph 8.0 mph 44% 0.00 in CLR
13:00 89.0 °F 63.6 °F 30.03 in SW 5.0 mph 10.0 mph 43% 0.00 in CLR
13:15 88.8 °F 62.0 °F 30.03 in SSW 5.0 mph 12.0 mph 41% 0.00 in CLR
13:30 89.5 °F 62.7 °F 30.02 in SW 7.0 mph 12.0 mph 41% 0.00 in CLR
13:45 89.7 °F 62.9 °F 30.02 in SW 6.0 mph 12.0 mph 41% 0.00 in CLR
14:00 90.0 °F 62.5 °F 30.01 in SSW 6.0 mph 12.0 mph 40% 0.00 in CLR
14:15 89.9 °F 63.7 °F 30.01 in SW 5.0 mph 13.0 mph 42% 0.00 in CLR
14:30 90.5 °F 64.9 °F 30.00 in SW 3.0 mph 13.0 mph 43% 0.00 in CLR
14:45 90.5 °F 62.9 °F 30.00 in SW 7.0 mph 13.0 mph 40% 0.00 in CLR
15:00 90.6 °F 62.3 °F 30.00 in SW 6.0 mph 13.0 mph 39% 0.00 in CLR
15:15 90.3 °F 62.7 °F 29.99 in SSW 5.0 mph 14.0 mph 40% 0.00 in CLR
15:30 91.3 °F 62.9 °F 29.99 in South 6.0 mph 13.0 mph 39% 0.00 in CLR
15:45 91.1 °F 63.4 °F 29.99 in SSW 7.0 mph 16.0 mph 40% 0.00 in CLR
16:00 90.8 °F 63.9 °F 29.99 in SW 6.0 mph 15.0 mph 41% 0.00 in CLR
16:15 91.3 °F 63.6 °F 29.99 in SW 5.0 mph 16.0 mph 40% 0.00 in CLR
16:30 91.6 °F 63.9 °F 29.99 in SW 3.0 mph 14.0 mph 40% 0.00 in CLR
16:45 91.2 °F 63.5 °F 29.99 in SW 7.0 mph 13.0 mph 40% 0.00 in CLR
17:00 90.8 °F 64.5 °F 29.99 in SSW 3.0 mph 12.0 mph 42% 0.00 in CLR
17:15 90.6 °F 64.4 °F 29.99 in SW 6.0 mph 12.0 mph 42% 0.00 in CLR
17:30 90.4 °F 64.9 °F 29.98 in SW 5.0 mph 13.0 mph 43% 0.00 in CLR
17:45 89.9 °F 63.8 °F 29.98 in SSW 3.0 mph 13.0 mph 42% 0.00 in CLR
18:00 89.5 °F 63.4 °F 29.97 in SW 5.0 mph 13.0 mph 42% 0.00 in CLR
18:15 89.7 °F 64.2 °F 29.97 in SSW 2.0 mph 12.0 mph 43% 0.00 in CLR
18:30 89.5 °F 64.0 °F 29.97 in SSW 3.0 mph 12.0 mph 43% 0.00 in CLR
18:45 89.4 °F 63.9 °F 29.97 in WSW 2.0 mph 8.0 mph 43% 0.00 in CLR
19:00 89.0 °F 65.6 °F 29.98 in WSW 1.0 mph 7.0 mph 46% 0.00 in CLR
19:15 88.8 °F 65.3 °F 29.98 in SSW 2.0 mph 10.0 mph 46% 0.00 in CLR
19:30 88.0 °F 64.6 °F 29.98 in SW 1.0 mph 13.0 mph 46% 0.00 in CLR
19:45 87.5 °F 64.2 °F 29.97 in SW 3.0 mph 7.0 mph 46% 0.00 in CLR
20:00 86.1 °F 64.1 °F 29.98 in SSW 1.0 mph 6.0 mph 48% 0.00 in CLR
20:15 85.0 °F 63.7 °F 29.98 in Calm   4.0 mph 49% 0.00 in CLR
20:30 83.8 °F 64.3 °F 29.98 in Calm   2.0 mph 52% 0.00 in CLR
20:45 82.8 °F 64.4 °F 29.99 in Calm   3.0 mph 54% 0.00 in CLR
21:00 82.3 °F 64.0 °F 29.99 in Calm   3.0 mph 54% 0.00 in CLR
21:15 82.0 °F 63.7 °F 29.99 in Calm   3.0 mph 54% 0.00 in CLR
21:30 81.9 °F 63.6 °F 30.00 in Calm   3.0 mph 54% 0.00 in CLR
21:45 81.7 °F 63.5 °F 30.00 in Calm   2.0 mph 54% 0.00 in CLR
22:00 80.6 °F 64.0 °F 30.00 in Calm     57% 0.00 in CLR
22:15 78.9 °F 64.3 °F 30.00 in Calm   1.0 mph 61% 0.00 in CLR
22:30 78.2 °F 63.6 °F 30.00 in Calm   2.0 mph 61% 0.00 in CLR
22:45 77.4 °F 63.8 °F 30.00 in Calm   1.0 mph 63% 0.00 in CLR
23:00 78.5 °F 63.9 °F 30.00 in Calm   2.0 mph 61% 0.00 in CLR
23:15 78.9 °F 63.8 °F 30.01 in Calm   4.0 mph 60% 0.00 in CLR
23:30 79.2 °F 63.6 °F 30.01 in SSW 1.0 mph 5.0 mph 59% 0.00 in CLR
23:45 79.2 °F 63.6 °F 30.00 in SSW 1.0 mph 7.0 mph 59% 0.00 in CLR
TarryTown NY Weather
Compliments of Weather Underground - 1.5 mb